Ina Theresa — V7UJ2 — position and weather

sailwx.info

Track history (hours):
 
Tides and Currents Weather Stations Pressure Air Temp Water Temp Dewpoint Dewpoint Depression Visibility Wind Speed Wind Dir Waves Ship Positions

Ina Theresa

Last reported at 2014-Oct-02 00:27 UTC. Time now 2014-Oct-02 14:39 UTC.
Position N 36°17' E 014°30'.

Length 122 m; draft 8.6 m.

Type: Ship (hazmat cat B). MMSI: 538004548.

Date/timePositionNaut miles runAvg speedWind from/ knotsBaromVisibWave heightAir tempDewpointWater temp
2014-Oct-02 00:27N 36°17' E 014°30'3311.4
2014-Oct-01 21:31N 36°29' E 013°52'2211.3
2014-Oct-01 19:33N 36°37' E 013°26'1211.1
2014-Oct-01 18:29N 36°42' E 013°12'1111.3
2014-Oct-01 17:30N 36°46' E 012°60'1311.3
2014-Oct-01 16:20N 36°51' E 012°44'911.4
2014-Oct-01 15:32N 36°54' E 012°34'41611.0
2014-Sep-30 01:32N 37°11' E 003°53'1211.4
2014-Sep-30 00:30N 37°09' E 003°38'1211.3
2014-Sep-29 23:28N 37°07' E 003°24'2311.0
2014-Sep-29 21:21N 37°02' E 002°55'911.2
2014-Sep-29 20:33N 37°01' E 002°44'1110.9
2014-Sep-29 19:33N 36°59' E 002°31'38011.4
2014-Sep-28 10:20N 35°59' W 005°16'911.0
2014-Sep-28 09:33N 35°58' W 005°26'254 9.8
2014-Sep-27 07:33N 38°05' W 010°01'1110.8
2014-Sep-27 06:31N 38°16' W 010°04'1010.7
2014-Sep-27 05:33N 38°26' W 010°07'1110.9
2014-Sep-27 04:33N 38°36' W 010°10'1211.0
2014-Sep-27 03:29N 38°48' W 010°12'1210.7
2014-Sep-27 02:22N 38°60' W 010°12'  
2014-Sep-23 22:33N 50°32' W 001°02'1010.0
2014-Sep-23 21:33N 50°42' W 000°58'9 8.6
2014-Sep-23 20:34N 50°46' W 001°10'8 7.6
2014-Sep-23 19:34N 50°50' W 001°20'0 0.1
2014-Sep-23 18:30N 50°50' W 001°20'0 0.0
2014-Sep-23 17:30N 50°50' W 001°20'0 0.0
2014-Sep-23 16:24N 50°50' W 001°20'0 0.0
2014-Sep-23 15:30N 50°50' W 001°20'0 0.0
2014-Sep-23 14:30N 50°50' W 001°20'0 0.0
2014-Sep-23 13:33N 50°50' W 001°20'0 0.0
2014-Sep-23 12:33N 50°50' W 001°20'0 0.0
2014-Sep-23 11:33N 50°50' W 001°20'0 0.0
2014-Sep-23 10:33N 50°50' W 001°20'0 0.0
2014-Sep-23 09:30N 50°50' W 001°20'0 0.0
2014-Sep-23 08:30N 50°50' W 001°20'0 0.0
2014-Sep-23 07:30N 50°50' W 001°20'0 0.0
2014-Sep-23 06:30N 50°50' W 001°20'0 0.0
2014-Sep-23 05:33N 50°50' W 001°20'0 0.0
2014-Sep-23 04:24N 50°50' W 001°20'0 0.0
2014-Sep-23 03:33N 50°50' W 001°20'0 0.0
2014-Sep-23 02:30N 50°50' W 001°20'0 0.0
2014-Sep-23 01:30N 50°50' W 001°20'0 0.0
2014-Sep-23 00:30N 50°50' W 001°20'0 0.0
2014-Sep-22 23:30N 50°50' W 001°20'0 0.0
2014-Sep-22 22:30N 50°50' W 001°20'0 0.0
2014-Sep-22 21:30N 50°50' W 001°20'0 0.0
2014-Sep-22 20:33N 50°50' W 001°20'0 0.0
2014-Sep-22 19:30N 50°50' W 001°20'0 0.0
2014-Sep-22 18:30N 50°50' W 001°20'0 0.0
2014-Sep-22 17:30N 50°50' W 001°20'0 0.0
2014-Sep-22 16:30N 50°50' W 001°20'0 0.0
2014-Sep-22 15:33N 50°50' W 001°20'3 2.8
2014-Sep-22 14:33N 50°48' W 001°18'10 9.6
2014-Sep-22 13:33N 50°44' W 001°04'1 1.0
2014-Sep-22 12:28N 50°43' W 001°03'1 1.6
2014-Sep-22 11:33N 50°43' W 001°01'1010.2
2014-Sep-22 10:33N 50°37' W 000°47'1211.8
2014-Sep-22 09:33N 50°34' W 000°30'1310.7
2014-Sep-22 08:20N 50°30' W 000°10'18 9.8
2014-Sep-22 06:33N 50°33' E 000°17'1111.0
2014-Sep-22 05:33N 50°36' E 000°34'1212.4
2014-Sep-22 04:33N 50°44' E 000°49'1312.9
2014-Sep-22 03:33N 50°52' E 001°05'1312.6
2014-Sep-22 02:32N 51°01' E 001°20'1111.6
2014-Sep-22 01:33N 51°08' E 001°34'1010.3
2014-Sep-22 00:33N 51°15' E 001°47'  
Track history (hours):
 
Tides and Currents Weather Stations Pressure Air Temp Water Temp Dewpoint Dewpoint Depression Visibility Wind Speed Wind Dir Waves Ship Positions

Ina Theresa

Last reported at 2014-Oct-02 00:27 UTC. Time now 2014-Oct-02 14:39 UTC.
Position N 36°17' E 014°30'.

Length 122 m; draft 8.6 m.

Type: Ship (hazmat cat B). MMSI: 538004548.

Date/timePositionNaut miles runAvg speedWind from/ knotsBaromVisibWave heightAir tempDewpointWater temp
2014-Oct-02 00:27N 36°17' E 014°30'3311.4
2014-Oct-01 21:31N 36°29' E 013°52'2211.3
2014-Oct-01 19:33N 36°37' E 013°26'1211.1
2014-Oct-01 18:29N 36°42' E 013°12'1111.3
2014-Oct-01 17:30N 36°46' E 012°60'1311.3
2014-Oct-01 16:20N 36°51' E 012°44'911.4
2014-Oct-01 15:32N 36°54' E 012°34'41611.0
2014-Sep-30 01:32N 37°11' E 003°53'1211.4
2014-Sep-30 00:30N 37°09' E 003°38'1211.3
2014-Sep-29 23:28N 37°07' E 003°24'2311.0
2014-Sep-29 21:21N 37°02' E 002°55'911.2
2014-Sep-29 20:33N 37°01' E 002°44'1110.9
2014-Sep-29 19:33N 36°59' E 002°31'38011.4
2014-Sep-28 10:20N 35°59' W 005°16'911.0
2014-Sep-28 09:33N 35°58' W 005°26'254 9.8
2014-Sep-27 07:33N 38°05' W 010°01'1110.8
2014-Sep-27 06:31N 38°16' W 010°04'1010.7
2014-Sep-27 05:33N 38°26' W 010°07'1110.9
2014-Sep-27 04:33N 38°36' W 010°10'1211.0
2014-Sep-27 03:29N 38°48' W 010°12'1210.7
2014-Sep-27 02:22N 38°60' W 010°12'  
2014-Sep-23 22:33N 50°32' W 001°02'1010.0
2014-Sep-23 21:33N 50°42' W 000°58'9 8.6
2014-Sep-23 20:34N 50°46' W 001°10'8 7.6
2014-Sep-23 19:34N 50°50' W 001°20'0 0.1
2014-Sep-23 18:30N 50°50' W 001°20'0 0.0
2014-Sep-23 17:30N 50°50' W 001°20'0 0.0
2014-Sep-23 16:24N 50°50' W 001°20'0 0.0
2014-Sep-23 15:30N 50°50' W 001°20'0 0.0
2014-Sep-23 14:30N 50°50' W 001°20'0 0.0
2014-Sep-23 13:33N 50°50' W 001°20'0 0.0
2014-Sep-23 12:33N 50°50' W 001°20'0 0.0
2014-Sep-23 11:33N 50°50' W 001°20'0 0.0
2014-Sep-23 10:33N 50°50' W 001°20'0 0.0
2014-Sep-23 09:30N 50°50' W 001°20'0 0.0
2014-Sep-23 08:30N 50°50' W 001°20'0 0.0
2014-Sep-23 07:30N 50°50' W 001°20'0 0.0
2014-Sep-23 06:30N 50°50' W 001°20'0 0.0
2014-Sep-23 05:33N 50°50' W 001°20'0 0.0
2014-Sep-23 04:24N 50°50' W 001°20'0 0.0
2014-Sep-23 03:33N 50°50' W 001°20'0 0.0
2014-Sep-23 02:30N 50°50' W 001°20'0 0.0
2014-Sep-23 01:30N 50°50' W 001°20'0 0.0
2014-Sep-23 00:30N 50°50' W 001°20'0 0.0
2014-Sep-22 23:30N 50°50' W 001°20'0 0.0
2014-Sep-22 22:30N 50°50' W 001°20'0 0.0
2014-Sep-22 21:30N 50°50' W 001°20'0 0.0
2014-Sep-22 20:33N 50°50' W 001°20'0 0.0
2014-Sep-22 19:30N 50°50' W 001°20'0 0.0
2014-Sep-22 18:30N 50°50' W 001°20'0 0.0
2014-Sep-22 17:30N 50°50' W 001°20'0 0.0
2014-Sep-22 16:30N 50°50' W 001°20'0 0.0
2014-Sep-22 15:33N 50°50' W 001°20'3 2.8
2014-Sep-22 14:33N 50°48' W 001°18'10 9.6
2014-Sep-22 13:33N 50°44' W 001°04'1 1.0
2014-Sep-22 12:28N 50°43' W 001°03'1 1.6
2014-Sep-22 11:33N 50°43' W 001°01'1010.2
2014-Sep-22 10:33N 50°37' W 000°47'1211.8
2014-Sep-22 09:33N 50°34' W 000°30'1310.7
2014-Sep-22 08:20N 50°30' W 000°10'18 9.8
2014-Sep-22 06:33N 50°33' E 000°17'1111.0
2014-Sep-22 05:33N 50°36' E 000°34'1212.4
2014-Sep-22 04:33N 50°44' E 000°49'1312.9
2014-Sep-22 03:33N 50°52' E 001°05'1312.6
2014-Sep-22 02:32N 51°01' E 001°20'1111.6
2014-Sep-22 01:33N 51°08' E 001°34'1010.3
2014-Sep-22 00:33N 51°15' E 001°47'  

Dump ship's entire track history